Time;durP1;ratioP1;P1;durP2;ratioP2;P2;SDS_P1;SDS_P2;PMS_P1;PMS_P2;Temp;Humidity;BMP_temperature;BMP_pressure;BME280_temperature;BME280_humidity;BME280_pressure;Samples;Min_cycle;Max_cycle;Signal;HPM_P1;HPM_P2
2022/06/19 00:04:40;;;;;;;;;;;25.20;49.50;;;;;;4960375;28;19921;-88
2022/06/19 00:07:06;;;;;;;;;;;25.20;49.50;;;;;;4957650;28;19997;-89
2022/06/19 00:09:34;;;;;;;;;;;25.10;49.80;;;;;;4956563;29;19946;-88
2022/06/19 00:12:00;;;;;;;;;;;25.10;50.00;;;;;;4931767;29;19922;-88
2022/06/19 00:14:25;;;;;;;;;;;25.00;49.90;;;;;;4942653;29;19921;-89
2022/06/19 00:16:50;;;;;;;;;;;25.00;50.10;;;;;;4944004;28;19919;-89
2022/06/19 00:19:16;;;;;;;;;;;25.00;50.20;;;;;;4939503;29;19954;-89
2022/06/19 00:21:42;;;;;;;;;;;25.00;50.40;;;;;;4953719;28;20006;-88
2022/06/19 00:24:07;;;;;;;;;;;24.80;50.30;;;;;;4938997;29;19914;-88
2022/06/19 00:26:33;;;;;;;;;;;24.80;50.10;;;;;;4936066;29;19923;-88
2022/06/19 00:28:58;;;;;;;;;;;24.80;50.40;;;;;;4952518;29;19926;-89
2022/06/19 00:31:26;;;;;;;;;;;24.80;50.70;;;;;;4953453;29;19965;-89
2022/06/19 00:33:57;;;;;;;;;;;24.80;50.60;;;;;;4941257;29;19915;-89
2022/06/19 00:36:25;;;;;;;;;;;24.70;50.90;;;;;;4948403;29;19925;-88
2022/06/19 00:38:50;;;;;;;;;;;24.70;51.30;;;;;;4939414;29;20329;-88
2022/06/19 00:41:16;;;;;;;;;;;24.70;51.20;;;;;;4939549;29;19930;-89
2022/06/19 00:43:56;;;;;;;;;;;24.60;51.40;;;;;;4939147;29;19937;-89
2022/06/19 00:46:39;;;;;;;;;;;24.50;51.60;;;;;;4939363;29;19930;-89
2022/06/19 00:49:08;;;;;;;;;;;24.50;51.80;;;;;;4953323;29;19942;-88
2022/06/19 00:51:33;;;;;;;;;;;24.50;52.20;;;;;;4956215;28;19946;-89
2022/06/19 00:53:59;;;;;;;;;;;24.40;52.50;;;;;;4957929;28;19915;-89
2022/06/19 00:56:27;;;;;;;;;;;24.40;52.60;;;;;;4956991;29;20352;-89
2022/06/19 00:58:53;;;;;;;;;;;24.40;52.70;;;;;;4938624;29;19942;-89
2022/06/19 01:01:21;;;;;;;;;;;24.40;52.50;;;;;;4963288;28;20045;-89
2022/06/19 01:03:46;;;;;;;;;;;24.40;52.60;;;;;;4939837;29;19914;-90
2022/06/19 01:06:13;;;;;;;;;;;24.40;52.70;;;;;;4957116;29;19934;-89
2022/06/19 01:08:38;;;;;;;;;;;24.40;52.80;;;;;;4961467;28;20374;-89
2022/06/19 01:11:04;;;;;;;;;;;24.40;52.70;;;;;;4947162;29;19942;-89
2022/06/19 01:13:31;;;;;;;;;;;24.30;52.70;;;;;;4944219;29;19914;-90
2022/06/19 01:15:57;;;;;;;;;;;24.30;52.80;;;;;;4938782;29;20366;-88
2022/06/19 01:18:25;;;;;;;;;;;24.30;52.70;;;;;;4969656;28;20311;-88
2022/06/19 01:21:15;;;;;;;;;;;24.30;52.60;;;;;;4944835;28;20311;-89
2022/06/19 01:23:47;;;;;;;;;;;24.20;52.50;;;;;;4942903;29;19932;-89
2022/06/19 01:26:13;;;;;;;;;;;24.20;52.70;;;;;;4956583;29;19923;-89
2022/06/19 01:28:55;;;;;;;;;;;24.10;52.80;;;;;;4974045;28;19914;-89
2022/06/19 01:31:24;;;;;;;;;;;24.10;52.80;;;;;;4975697;28;20009;-89
2022/06/19 01:33:51;;;;;;;;;;;24.10;52.80;;;;;;4956150;29;19973;-90
2022/06/19 01:36:18;;;;;;;;;;;24.00;52.80;;;;;;4971323;28;19921;-89
2022/06/19 01:38:48;;;;;;;;;;;24.00;53.00;;;;;;4946603;29;19943;-90
2022/06/19 01:41:16;;;;;;;;;;;23.90;53.10;;;;;;4936446;29;19919;-89
2022/06/19 01:43:41;;;;;;;;;;;23.90;53.00;;;;;;4972666;28;19923;-88
2022/06/19 01:46:07;;;;;;;;;;;23.80;53.00;;;;;;4957865;28;20351;-88
2022/06/19 01:48:33;;;;;;;;;;;23.80;53.00;;;;;;4972866;28;20282;-89
2022/06/19 01:51:01;;;;;;;;;;;23.80;52.80;;;;;;4958242;28;20020;-89
2022/06/19 01:53:30;;;;;;;;;;;23.70;52.80;;;;;;4966114;28;20009;-88
2022/06/19 01:55:55;;;;;;;;;;;23.70;53.00;;;;;;4957724;28;20429;-88
2022/06/19 01:58:22;;;;;;;;;;;23.70;53.20;;;;;;4972977;28;19919;-88
2022/06/19 02:00:48;;;;;;;;;;;23.60;53.10;;;;;;4938215;29;20274;-88
2022/06/19 02:03:46;;;;;;;;;;;23.60;53.00;;;;;;4938091;29;20021;-88
2022/06/19 02:06:14;;;;;;;;;;;23.50;53.00;;;;;;4916476;29;20001;-88
2022/06/19 02:08:40;;;;;;;;;;;23.50;53.10;;;;;;4938067;29;19965;-88
2022/06/19 02:11:06;;;;;;;;;;;23.40;53.20;;;;;;4922903;29;19997;-88
2022/06/19 02:13:34;;;;;;;;;;;23.40;53.30;;;;;;4918847;29;19966;-88
2022/06/19 02:16:01;;;;;;;;;;;23.40;53.60;;;;;;4933430;29;19918;-88
2022/06/19 02:18:29;;;;;;;;;;;23.40;53.60;;;;;;4938762;29;19922;-90
2022/06/19 02:20:54;;;;;;;;;;;23.40;53.80;;;;;;4939279;29;19930;-90
2022/06/19 02:23:30;;;;;;;;;;;23.40;54.10;;;;;;4968199;28;19923;-90
2022/06/19 02:25:56;;;;;;;;;;;23.30;54.00;;;;;;4959463;28;19914;-90
2022/06/19 02:28:21;;;;;;;;;;;23.40;54.30;;;;;;4960653;28;20398;-89
2022/06/19 02:30:48;;;;;;;;;;;23.30;54.10;;;;;;4938762;29;20386;-90
2022/06/19 02:33:17;;;;;;;;;;;23.30;54.10;;;;;;4951155;28;19919;-91
2022/06/19 02:35:44;;;;;;;;;;;23.30;54.10;;;;;;4945309;29;19939;-91
2022/06/19 02:38:13;;;;;;;;;;;23.30;54.30;;;;;;4956643;28;19926;-91
2022/06/19 02:40:48;;;;;;;;;;;23.20;54.30;;;;;;4960504;28;19926;-91
2022/06/19 02:43:18;;;;;;;;;;;23.20;54.30;;;;;;4956928;29;19918;-91
2022/06/19 02:45:44;;;;;;;;;;;23.20;54.40;;;;;;4939081;29;19921;-91
2022/06/19 02:48:16;;;;;;;;;;;23.10;54.10;;;;;;4939770;29;19922;-92
2022/06/19 02:50:42;;;;;;;;;;;23.10;54.20;;;;;;4930253;29;20317;-89
2022/06/19 02:53:07;;;;;;;;;;;23.00;54.10;;;;;;4965751;28;19922;-89
2022/06/19 02:55:33;;;;;;;;;;;23.00;54.30;;;;;;4964305;28;19915;-89
2022/06/19 02:57:58;;;;;;;;;;;22.90;54.20;;;;;;4954058;29;19923;-88
2022/06/19 03:00:25;;;;;;;;;;;22.90;54.30;;;;;;4954186;28;20393;-89
2022/06/19 03:02:52;;;;;;;;;;;22.80;54.30;;;;;;4964100;28;19919;-89
2022/06/19 03:05:19;;;;;;;;;;;22.90;54.30;;;;;;4928100;29;19918;-89
2022/06/19 03:07:45;;;;;;;;;;;22.80;54.40;;;;;;4937906;29;19925;-88
2022/06/19 03:10:10;;;;;;;;;;;22.80;54.30;;;;;;4954501;29;20001;-89
2022/06/19 03:12:46;;;;;;;;;;;22.70;54.30;;;;;;4962899;28;20371;-90
2022/06/19 03:23:16;;;;;;;;;;;22.60;54.00;;;;;;4952066;28;19950;-88
2022/06/19 03:25:41;;;;;;;;;;;22.60;54.10;;;;;;4954331;28;19983;-88
2022/06/19 03:28:06;;;;;;;;;;;22.50;54.00;;;;;;4956825;28;19926;-88
2022/06/19 03:30:34;;;;;;;;;;;22.50;54.20;;;;;;4939520;29;19978;-88
2022/06/19 03:33:00;;;;;;;;;;;22.50;54.20;;;;;;4971148;28;20007;-88
2022/06/19 03:35:25;;;;;;;;;;;22.50;54.10;;;;;;4940886;29;19919;-88
2022/06/19 03:37:51;;;;;;;;;;;22.50;54.10;;;;;;4962817;28;20319;-90
2022/06/19 03:40:16;;;;;;;;;;;22.50;54.00;;;;;;4944941;29;20335;-89
2022/06/19 03:42:42;;;;;;;;;;;22.50;54.00;;;;;;4948956;28;19929;-89
2022/06/19 03:45:07;;;;;;;;;;;22.50;53.90;;;;;;4941100;29;20320;-90
2022/06/19 03:47:33;;;;;;;;;;;22.50;53.70;;;;;;4948588;28;19993;-90
2022/06/19 03:49:59;;;;;;;;;;;22.50;53.80;;;;;;4957122;29;20276;-90
2022/06/19 03:52:25;;;;;;;;;;;22.60;54.00;;;;;;4942288;29;20013;-89
2022/06/19 03:54:50;;;;;;;;;;;22.60;54.30;;;;;;4940220;29;19951;-89
2022/06/19 03:57:16;;;;;;;;;;;22.60;54.30;;;;;;4946346;28;19957;-88
2022/06/19 03:59:41;;;;;;;;;;;22.70;54.20;;;;;;4957069;29;19921;-89
2022/06/19 04:02:09;;;;;;;;;;;22.70;54.10;;;;;;4966161;28;19922;-89
2022/06/19 04:04:35;;;;;;;;;;;22.80;53.90;;;;;;4958233;28;19919;-88
2022/06/19 04:07:01;;;;;;;;;;;22.70;53.70;;;;;;4944237;28;19953;-88
2022/06/19 04:09:26;;;;;;;;;;;22.80;53.40;;;;;;4975239;28;19919;-88
2022/06/19 04:11:52;;;;;;;;;;;23.00;53.10;;;;;;4960468;28;19969;-88
2022/06/19 04:14:17;;;;;;;;;;;23.10;52.60;;;;;;4972078;28;19919;-89
2022/06/19 04:16:43;;;;;;;;;;;23.20;52.00;;;;;;4950858;28;19915;-88
2022/06/19 04:19:08;;;;;;;;;;;23.30;51.50;;;;;;4948778;28;19929;-88
2022/06/19 04:21:35;;;;;;;;;;;23.40;51.30;;;;;;4936690;29;20383;-89
2022/06/19 04:24:05;;;;;;;;;;;23.60;50.50;;;;;;4946652;29;19944;-88
2022/06/19 04:26:32;;;;;;;;;;;23.70;49.70;;;;;;4933086;29;19914;-89
2022/06/19 04:28:58;;;;;;;;;;;23.90;49.50;;;;;;4952404;28;20399;-88
2022/06/19 04:31:24;;;;;;;;;;;24.10;49.00;;;;;;4956566;29;19922;-89
2022/06/19 04:33:50;;;;;;;;;;;24.20;48.70;;;;;;4956822;29;19914;-88
2022/06/19 04:36:16;;;;;;;;;;;24.50;47.30;;;;;;4937046;29;19919;-89
2022/06/19 04:38:43;;;;;;;;;;;24.60;47.00;;;;;;4941530;29;19943;-89
2022/06/19 04:41:20;;;;;;;;;;;24.80;46.90;;;;;;4942018;29;20371;-89
2022/06/19 04:43:45;;;;;;;;;;;25.00;46.30;;;;;;4950066;29;19919;-89
2022/06/19 04:46:11;;;;;;;;;;;25.30;45.70;;;;;;4938567;29;20383;-89
2022/06/19 04:48:38;;;;;;;;;;;25.50;45.20;;;;;;4939905;29;20282;-89
2022/06/19 04:51:03;;;;;;;;;;;25.60;43.90;;;;;;4957503;29;19920;-89
2022/06/19 04:53:29;;;;;;;;;;;25.80;43.40;;;;;;4942390;29;19926;-89
2022/06/19 04:55:55;;;;;;;;;;;25.90;43.30;;;;;;4937130;29;19922;-88
2022/06/19 04:58:23;;;;;;;;;;;26.10;43.00;;;;;;4951908;29;20374;-89
2022/06/19 05:00:49;;;;;;;;;;;26.20;42.20;;;;;;4939568;29;19970;-88
2022/06/19 05:03:15;;;;;;;;;;;26.40;41.60;;;;;;4948573;29;19926;-88
2022/06/19 05:05:41;;;;;;;;;;;26.60;41.20;;;;;;4957154;29;19919;-88
2022/06/19 05:08:06;;;;;;;;;;;26.70;40.80;;;;;;4938884;28;19985;-87
2022/06/19 05:10:32;;;;;;;;;;;26.90;40.60;;;;;;4957009;29;20348;-89
2022/06/19 05:12:57;;;;;;;;;;;27.10;39.30;;;;;;4939658;29;19926;-89
2022/06/19 05:15:23;;;;;;;;;;;27.20;38.90;;;;;;4939853;29;20052;-89
2022/06/19 05:17:48;;;;;;;;;;;27.40;38.40;;;;;;4938182;29;20022;-89
2022/06/19 05:20:14;;;;;;;;;;;27.50;38.10;;;;;;4955331;29;20422;-86
2022/06/19 05:22:39;;;;;;;;;;;27.70;37.50;;;;;;4954598;28;20010;-87
2022/06/19 05:25:08;;;;;;;;;;;27.70;37.20;;;;;;4954375;28;19918;-87
2022/06/19 05:27:38;;;;;;;;;;;27.90;37.60;;;;;;4947708;28;19945;-87
2022/06/19 05:30:05;;;;;;;;;;;28.20;37.20;;;;;;4939603;29;19918;-87
2022/06/19 05:32:30;;;;;;;;;;;28.40;36.10;;;;;;4935047;29;19950;-87
2022/06/19 05:34:55;;;;;;;;;;;28.50;35.10;;;;;;4938204;29;19926;-87
2022/06/19 05:37:21;;;;;;;;;;;28.40;34.70;;;;;;4938702;29;19914;-88
2022/06/19 05:39:46;;;;;;;;;;;28.40;34.90;;;;;;4939431;29;19961;-87
2022/06/19 05:42:12;;;;;;;;;;;28.70;35.10;;;;;;4944200;28;20677;-87
2022/06/19 05:44:37;;;;;;;;;;;28.80;34.10;;;;;;4958620;28;19918;-88
2022/06/19 05:47:03;;;;;;;;;;;28.90;33.90;;;;;;4944415;28;19946;-89
2022/06/19 05:49:31;;;;;;;;;;;29.10;33.30;;;;;;4936427;29;19922;-87
2022/06/19 05:51:57;;;;;;;;;;;29.20;32.90;;;;;;4951866;28;19914;-87
2022/06/19 05:54:23;;;;;;;;;;;29.20;31.80;;;;;;4971404;28;19918;-88
2022/06/19 05:56:48;;;;;;;;;;;29.20;31.70;;;;;;4940678;28;20058;-88
2022/06/19 05:59:14;;;;;;;;;;;29.20;31.50;;;;;;4957167;29;19918;-87
2022/06/19 06:01:39;;;;;;;;;;;29.30;31.40;;;;;;4958252;28;19925;-88
2022/06/19 06:04:05;;;;;;;;;;;29.30;31.30;;;;;;4967374;28;20371;-87
2022/06/19 06:06:31;;;;;;;;;;;29.60;31.30;;;;;;4939914;28;20568;-88
2022/06/19 06:08:56;;;;;;;;;;;29.70;30.10;;;;;;4969381;28;19914;-89
2022/06/19 06:11:22;;;;;;;;;;;29.80;29.80;;;;;;4939883;29;20252;-87
2022/06/19 06:13:48;;;;;;;;;;;30.00;29.40;;;;;;4956124;28;20172;-88
2022/06/19 06:16:14;;;;;;;;;;;30.10;29.30;;;;;;4955150;29;19914;-88
2022/06/19 06:18:40;;;;;;;;;;;30.30;29.20;;;;;;4958962;28;19915;-87
2022/06/19 06:21:09;;;;;;;;;;;30.40;29.10;;;;;;4954406;29;20352;-87
2022/06/19 06:23:35;;;;;;;;;;;30.70;28.70;;;;;;4950552;29;20252;-88
2022/06/19 06:26:01;;;;;;;;;;;30.90;28.40;;;;;;4956532;29;19919;-88
2022/06/19 06:28:27;;;;;;;;;;;31.00;27.30;;;;;;4951656;29;20276;-88
2022/06/19 06:30:52;;;;;;;;;;;31.20;27.50;;;;;;4955296;29;19919;-88
2022/06/19 06:33:18;;;;;;;;;;;31.20;27.10;;;;;;4954864;29;20402;-88
2022/06/19 06:35:43;;;;;;;;;;;31.30;26.90;;;;;;4939957;29;19918;-87
2022/06/19 06:38:09;;;;;;;;;;;31.40;26.90;;;;;;4969429;28;20005;-89
2022/06/19 06:40:34;;;;;;;;;;;31.50;26.70;;;;;;4959389;28;20458;-88
2022/06/19 06:43:00;;;;;;;;;;;31.70;26.60;;;;;;4968668;28;20310;-88
2022/06/19 06:45:25;;;;;;;;;;;31.80;26.50;;;;;;4940391;29;19923;-89
2022/06/19 06:47:51;;;;;;;;;;;32.00;26.70;;;;;;4947098;28;19925;-87
2022/06/19 06:50:17;;;;;;;;;;;32.20;25.70;;;;;;4956146;29;20022;-87
2022/06/19 06:52:45;;;;;;;;;;;32.20;25.80;;;;;;4934977;29;20043;-87
2022/06/19 06:55:10;;;;;;;;;;;32.30;25.70;;;;;;4936451;29;19973;-87
2022/06/19 06:57:36;;;;;;;;;;;32.40;25.50;;;;;;4944604;28;19982;-88
2022/06/19 07:00:03;;;;;;;;;;;32.50;25.30;;;;;;4938239;29;19919;-89
2022/06/19 07:02:28;;;;;;;;;;;32.60;25.30;;;;;;4957134;28;20017;-89
2022/06/19 07:04:55;;;;;;;;;;;32.70;25.40;;;;;;4941384;29;19949;-88
2022/06/19 07:07:20;;;;;;;;;;;32.90;25.20;;;;;;4941327;29;19962;-88
2022/06/19 07:09:46;;;;;;;;;;;33.10;25.10;;;;;;4940664;29;20402;-88
2022/06/19 07:12:11;;;;;;;;;;;33.30;24.90;;;;;;4942440;29;20789;-88
2022/06/19 07:14:37;;;;;;;;;;;33.50;24.70;;;;;;4958353;29;20276;-88
2022/06/19 07:17:03;;;;;;;;;;;33.70;24.90;;;;;;4945697;28;19969;-88
2022/06/19 07:19:29;;;;;;;;;;;34.00;24.60;;;;;;4972558;28;20414;-88
2022/06/19 07:21:54;;;;;;;;;;;34.20;24.20;;;;;;4962480;28;19930;-88
2022/06/19 07:24:20;;;;;;;;;;;34.30;23.80;;;;;;4971165;28;19918;-88
2022/06/19 07:26:45;;;;;;;;;;;34.40;23.70;;;;;;4940783;29;19919;-88
2022/06/19 07:29:11;;;;;;;;;;;34.50;23.70;;;;;;4968506;28;19969;-88
2022/06/19 07:31:36;;;;;;;;;;;34.80;23.70;;;;;;4951405;29;20376;-90
2022/06/19 07:34:02;;;;;;;;;;;35.00;23.30;;;;;;4947003;29;19921;-88
2022/06/19 07:36:28;;;;;;;;;;;35.20;23.40;;;;;;4958426;28;19919;-87
2022/06/19 07:38:53;;;;;;;;;;;35.30;22.90;;;;;;4976630;28;19921;-87
2022/06/19 07:41:19;;;;;;;;;;;35.40;23.20;;;;;;4946152;29;19929;-88
2022/06/19 07:43:45;;;;;;;;;;;35.70;23.30;;;;;;4942227;29;19922;-89
2022/06/19 07:46:11;;;;;;;;;;;36.00;22.80;;;;;;4940595;29;19918;-89
2022/06/19 07:51:27;;;;;;;;;;;36.50;22.70;;;;;;4958402;29;19928;-89
2022/06/19 07:53:52;;;;;;;;;;;37.00;22.20;;;;;;4940330;29;19918;-88
2022/06/19 07:56:18;;;;;;;;;;;37.30;22.10;;;;;;4955943;29;19945;-88
2022/06/19 07:58:43;;;;;;;;;;;37.80;21.60;;;;;;4926678;29;20021;-89
2022/06/19 08:01:09;;;;;;;;;;;38.30;21.50;;;;;;4958060;28;20244;-88
2022/06/19 08:03:35;;;;;;;;;;;38.80;20.90;;;;;;4965641;28;19969;-88
2022/06/19 08:06:00;;;;;;;;;;;39.00;19.90;;;;;;4959945;28;20012;-89
2022/06/19 08:08:27;;;;;;;;;;;39.00;20.10;;;;;;4945948;29;19918;-88
2022/06/19 08:10:54;;;;;;;;;;;38.90;19.80;;;;;;4940653;29;19914;-88
2022/06/19 08:13:20;;;;;;;;;;;38.80;19.70;;;;;;4948232;28;20013;-87
2022/06/19 08:15:48;;;;;;;;;;;38.70;19.70;;;;;;4957115;28;20074;-88
2022/06/19 08:18:14;;;;;;;;;;;38.80;20.00;;;;;;4958233;28;20283;-87
2022/06/19 08:20:40;;;;;;;;;;;38.90;19.30;;;;;;4930879;29;19919;-88
2022/06/19 08:23:05;;;;;;;;;;;38.80;19.40;;;;;;4953547;28;19962;-88
2022/06/19 08:25:37;;;;;;;;;;;39.00;19.60;;;;;;4930521;29;19915;-88
2022/06/19 08:28:03;;;;;;;;;;;39.10;19.20;;;;;;4950254;29;19923;-88
2022/06/19 08:30:31;;;;;;;;;;;39.20;19.10;;;;;;4928119;29;20417;-88
2022/06/19 08:33:14;;;;;;;;;;;39.20;18.60;;;;;;4945949;28;19919;-88
2022/06/19 08:35:42;;;;;;;;;;;39.20;18.40;;;;;;4924091;29;19963;-87
2022/06/19 08:38:10;;;;;;;;;;;39.20;18.20;;;;;;4941008;29;19941;-87
2022/06/19 08:40:38;;;;;;;;;;;39.20;18.10;;;;;;4956613;29;19922;-88
2022/06/19 08:43:24;;;;;;;;;;;39.30;18.10;;;;;;4956689;29;19919;-88
2022/06/19 08:46:20;;;;;;;;;;;39.40;18.30;;;;;;4971753;28;19919;-87
2022/06/19 08:48:49;;;;;;;;;;;39.60;17.90;;;;;;4960487;28;20278;-88
2022/06/19 08:51:27;;;;;;;;;;;39.80;18.00;;;;;;4958851;29;19919;-89
2022/06/19 08:54:01;;;;;;;;;;;40.00;17.90;;;;;;4938983;29;19961;-89
2022/06/19 08:56:31;;;;;;;;;;;40.40;18.10;;;;;;4939702;29;20635;-89
2022/06/19 08:58:57;;;;;;;;;;;40.80;18.10;;;;;;4944764;29;20375;-89
2022/06/19 09:01:31;;;;;;;;;;;41.30;17.90;;;;;;4958726;29;19947;-89
2022/06/19 09:06:53;;;;;;;;;;;41.80;16.10;;;;;;4954830;28;19921;-89
2022/06/19 09:09:46;;;;;;;;;;;41.70;16.40;;;;;;4958835;28;19918;-88
2022/06/19 09:12:23;;;;;;;;;;;41.80;16.50;;;;;;4961495;28;19997;-88
2022/06/19 09:15:06;;;;;;;;;;;41.70;16.80;;;;;;4976224;28;20134;-89
2022/06/19 09:17:34;;;;;;;;;;;41.80;17.10;;;;;;4975881;28;19919;-88
2022/06/19 09:20:11;;;;;;;;;;;41.90;16.90;;;;;;4971385;28;19997;-88
2022/06/19 09:22:37;;;;;;;;;;;41.90;16.60;;;;;;4956929;29;19923;-88
2022/06/19 09:25:25;;;;;;;;;;;41.50;16.30;;;;;;4957066;28;20383;-88
2022/06/19 09:27:57;;;;;;;;;;;41.30;16.80;;;;;;4945558;29;19918;-88
2022/06/19 09:30:29;;;;;;;;;;;41.30;17.10;;;;;;4951528;29;19930;-88
2022/06/19 09:32:57;;;;;;;;;;;41.60;16.70;;;;;;4942179;29;19922;-88
2022/06/19 09:35:26;;;;;;;;;;;41.40;16.80;;;;;;4935750;29;20282;-87
2022/06/19 09:38:03;;;;;;;;;;;41.20;16.90;;;;;;4942424;29;19919;-88
2022/06/19 09:40:29;;;;;;;;;;;41.00;17.40;;;;;;4938486;29;19914;-87
2022/06/19 09:42:59;;;;;;;;;;;41.10;17.60;;;;;;4941298;29;19946;-88
2022/06/19 09:45:27;;;;;;;;;;;41.40;17.40;;;;;;4940056;29;19921;-88
2022/06/19 09:47:59;;;;;;;;;;;41.70;17.30;;;;;;4956547;28;19925;-88
2022/06/19 09:54:04;;;;;;;;;;;42.20;17.20;;;;;;4948128;28;19941;-93
2022/06/19 09:56:37;;;;;;;;;;;42.70;17.20;;;;;;4950975;28;19914;-96
2022/06/19 09:59:17;;;;;;;;;;;43.10;17.20;;;;;;4951964;29;20382;-95
2022/06/19 10:01:47;;;;;;;;;;;43.30;16.50;;;;;;4949116;29;19942;-96
2022/06/19 10:04:22;;;;;;;;;;;43.60;16.40;;;;;;4973497;28;20781;-93
2022/06/19 10:07:01;;;;;;;;;;;43.70;16.00;;;;;;4951658;28;19910;-95
2022/06/19 10:10:08;;;;;;;;;;;43.80;16.30;;;;;;4965857;29;19919;-95
2022/06/19 10:15:39;;;;;;;;;;;44.70;16.10;;;;;;4944869;29;19919;-94
2022/06/19 10:18:24;;;;;;;;;;;45.20;16.00;;;;;;4947317;28;19986;-93
2022/06/19 10:20:57;;;;;;;;;;;45.40;15.50;;;;;;4962708;29;20002;-96
2022/06/19 10:23:58;;;;;;;;;;;45.30;15.50;;;;;;4954914;29;19933;-96
2022/06/19 10:26:30;;;;;;;;;;;45.30;15.50;;;;;;4870039;29;19915;-96
2022/06/19 10:28:58;;;;;;;;;;;45.50;15.50;;;;;;4885209;29;19923;-95
2022/06/19 10:32:04;;;;;;;;;;;45.50;15.30;;;;;;4905254;29;19922;-94
2022/06/19 10:34:48;;;;;;;;;;;45.40;15.20;;;;;;4901669;29;19919;-95
2022/06/19 10:37:32;;;;;;;;;;;45.40;15.30;;;;;;4930771;28;19922;-95
2022/06/19 10:40:08;;;;;;;;;;;45.20;14.80;;;;;;4986699;28;19914;-94
2022/06/19 10:42:55;;;;;;;;;;;44.80;15.00;;;;;;4985773;28;19937;-94
2022/06/19 10:46:00;;;;;;;;;;;44.40;15.20;;;;;;4985019;28;20358;-95
2022/06/19 10:48:34;;;;;;;;;;;43.60;15.30;;;;;;4947207;28;19914;-94
2022/06/19 10:51:21;;;;;;;;;;;;;;;;;;;;;
2022/06/19 10:57:00;;;;;;;;;;;42.20;16.30;;;;;;4892874;29;19926;-93
2022/06/19 10:59:28;;;;;;;;;;;42.00;16.40;;;;;;4932013;29;19935;-93
2022/06/19 11:05:16;;;;;;;;;;;41.00;17.00;;;;;;4932826;29;20291;-94
2022/06/19 11:07:53;;;;;;;;;;;40.10;17.40;;;;;;4909983;29;19926;-92
2022/06/19 11:10:37;;;;;;;;;;;39.30;18.00;;;;;;4934834;29;19922;-95
2022/06/19 11:19:29;;;;;;;;;;;37.30;19.80;;;;;;4928881;29;19926;-94
2022/06/19 11:25:19;;;;;;;;;;;37.00;20.60;;;;;;4917998;29;19982;-95
2022/06/19 11:28:04;;;;;;;;;;;37.00;20.40;;;;;;4913551;29;19953;-94
2022/06/19 11:30:35;;;;;;;;;;;37.20;20.50;;;;;;4956840;28;19919;-93
2022/06/19 11:33:02;;;;;;;;;;;37.20;20.50;;;;;;4940468;28;19919;-91
2022/06/19 11:35:42;;;;;;;;;;;37.30;20.60;;;;;;4942353;29;19915;-92
2022/06/19 11:38:10;;;;;;;;;;;37.50;20.20;;;;;;4947830;28;19921;-91
2022/06/19 11:40:37;;;;;;;;;;;37.60;20.10;;;;;;4947725;29;19986;-93
2022/06/19 11:43:04;;;;;;;;;;;37.60;20.10;;;;;;4973625;28;20477;-92
2022/06/19 11:45:31;;;;;;;;;;;37.50;20.30;;;;;;4962341;29;19970;-93
2022/06/19 11:47:57;;;;;;;;;;;37.40;20.30;;;;;;4949475;28;19914;-91
2022/06/19 11:50:24;;;;;;;;;;;37.30;20.40;;;;;;4943996;29;20018;-93
2022/06/19 11:53:05;;;;;;;;;;;37.30;20.50;;;;;;4938651;29;19919;-93
2022/06/19 11:55:32;;;;;;;;;;;36.90;20.90;;;;;;4965679;29;19922;-92
2022/06/19 11:57:59;;;;;;;;;;;36.70;21.20;;;;;;4971438;28;19949;-93
2022/06/19 12:00:26;;;;;;;;;;;36.80;21.20;;;;;;4965070;28;19927;-90
2022/06/19 12:02:55;;;;;;;;;;;36.50;21.30;;;;;;4948344;29;19913;-94
2022/06/19 12:05:36;;;;;;;;;;;36.40;21.50;;;;;;4953136;29;20409;-93
2022/06/19 12:08:07;;;;;;;;;;;36.40;21.50;;;;;;4942068;28;19918;-92
2022/06/19 12:10:38;;;;;;;;;;;36.60;21.60;;;;;;4954639;29;19958;-95
2022/06/19 12:13:18;;;;;;;;;;;37.00;21.20;;;;;;4970975;28;19933;-95
2022/06/19 12:15:51;;;;;;;;;;;37.30;21.20;;;;;;4955231;28;19919;-93
2022/06/19 12:18:20;;;;;;;;;;;37.60;20.70;;;;;;4956317;29;19926;-92
2022/06/19 12:21:03;;;;;;;;;;;37.80;20.60;;;;;;4952439;29;19935;-93
2022/06/19 12:23:33;;;;;;;;;;;37.80;20.50;;;;;;4966418;29;19922;-94
2022/06/19 12:26:07;;;;;;;;;;;38.20;20.30;;;;;;4950140;29;19946;-95
2022/06/19 12:28:52;;;;;;;;;;;38.50;20.00;;;;;;4977624;28;19919;-96
2022/06/19 12:31:31;;;;;;;;;;;38.50;19.90;;;;;;4975258;28;19914;-95
2022/06/19 12:34:20;;;;;;;;;;;38.70;19.80;;;;;;4975883;28;19922;-95
2022/06/19 12:36:46;;;;;;;;;;;39.00;19.60;;;;;;4958035;29;19915;-96
2022/06/19 12:39:21;;;;;;;;;;;38.90;19.60;;;;;;4938110;29;19918;-93
2022/06/19 12:41:55;;;;;;;;;;;39.10;19.80;;;;;;4950760;29;19976;-95
2022/06/19 12:44:26;;;;;;;;;;;39.40;19.60;;;;;;4952602;29;20033;-94
2022/06/19 12:46:55;;;;;;;;;;;39.50;19.70;;;;;;4949049;29;19919;-92
2022/06/19 12:49:20;;;;;;;;;;;39.60;19.40;;;;;;4953084;29;20006;-94
2022/06/19 12:52:02;;;;;;;;;;;39.70;19.20;;;;;;4971207;28;19899;-95
2022/06/19 12:54:39;;;;;;;;;;;39.30;19.40;;;;;;4968540;29;20014;-93
2022/06/19 12:57:11;;;;;;;;;;;39.00;19.90;;;;;;4952263;29;19986;-93
2022/06/19 12:59:36;;;;;;;;;;;38.60;20.20;;;;;;4961632;28;20718;-93
2022/06/19 13:02:21;;;;;;;;;;;38.70;20.40;;;;;;4947310;29;19923;-93
2022/06/19 13:05:06;;;;;;;;;;;39.10;20.40;;;;;;4971443;28;19919;-93
2022/06/19 13:07:32;;;;;;;;;;;39.90;20.00;;;;;;4948750;28;19978;-91
2022/06/19 13:10:24;;;;;;;;;;;40.50;19.50;;;;;;4970907;28;19946;-91
2022/06/19 13:13:00;;;;;;;;;;;40.70;19.30;;;;;;4963446;29;19972;-93
2022/06/19 13:15:35;;;;;;;;;;;40.60;19.00;;;;;;4955238;29;19914;-92
2022/06/19 13:18:20;;;;;;;;;;;40.50;19.20;;;;;;4954884;28;19942;-92
2022/06/19 13:23:36;;;;;;;;;;;40.20;19.40;;;;;;4989146;28;19997;-93
2022/06/19 13:29:36;;;;;;;;;;;39.20;19.70;;;;;;4964334;29;19922;-96
2022/06/19 13:32:13;;;;;;;;;;;38.30;20.50;;;;;;4942978;29;19911;-91
2022/06/19 13:34:57;;;;;;;;;;;37.90;21.20;;;;;;4947442;29;19922;-91
2022/06/19 13:40:44;;;;;;;;;;;37.40;21.20;;;;;;4971718;28;19925;-93
2022/06/19 13:43:17;;;;;;;;;;;37.00;21.50;;;;;;4966799;29;20310;-91
2022/06/19 13:46:12;;;;;;;;;;;36.50;21.70;;;;;;4966702;29;19918;-93
2022/06/19 13:48:51;;;;;;;;;;;36.30;21.80;;;;;;4962778;28;19940;-94
2022/06/19 13:51:38;;;;;;;;;;;36.30;21.70;;;;;;5290983;23;20407;-90
2022/06/19 13:54:11;;;;;;;;;;;36.10;21.60;;;;;;4965262;28;19919;-92
2022/06/19 13:56:57;;;;;;;;;;;35.80;22.00;;;;;;4930949;29;19930;-92
2022/06/19 13:59:41;;;;;;;;;;;35.50;22.30;;;;;;4969885;29;20271;-96
2022/06/19 14:02:26;;;;;;;;;;;35.10;22.40;;;;;;4978069;23;19934;-95
2022/06/19 14:05:11;;;;;;;;;;;34.70;22.80;;;;;;4963994;28;19903;-93
2022/06/19 14:07:52;;;;;;;;;;;34.50;23.20;;;;;;4964344;28;19922;-92
2022/06/19 14:13:35;;;;;;;;;;;34.30;23.60;;;;;;4968164;29;19942;-93
2022/06/19 14:16:06;;;;;;;;;;;34.30;24.00;;;;;;4950148;29;19915;-94
2022/06/19 14:18:51;;;;;;;;;;;34.60;24.00;;;;;;4947537;29;19938;-94
2022/06/19 14:21:41;;;;;;;;;;;34.50;24.00;;;;;;4936378;29;19922;-93
2022/06/19 14:27:04;;;;;;;;;;;34.20;24.30;;;;;;4950449;29;19927;-90
2022/06/19 14:29:43;;;;;;;;;;;34.20;24.50;;;;;;4924176;29;19907;-91
2022/06/19 14:32:18;;;;;;;;;;;33.80;24.80;;;;;;4929661;29;19919;-93
2022/06/19 14:35:10;;;;;;;;;;;33.50;25.20;;;;;;4939430;29;19899;-93
2022/06/19 14:37:39;;;;;;;;;;;33.30;25.50;;;;;;4938414;29;19932;-92
2022/06/19 14:40:24;;;;;;;;;;;33.10;25.80;;;;;;4953992;28;19984;-93
2022/06/19 14:43:00;;;;;;;;;;;33.00;26.20;;;;;;4976024;28;19930;-93
2022/06/19 14:45:45;;;;;;;;;;;32.70;26.40;;;;;;4952479;28;19902;-94
2022/06/19 14:48:15;;;;;;;;;;;32.50;26.60;;;;;;4966599;28;19919;-94
2022/06/19 14:51:03;;;;;;;;;;;32.30;27.00;;;;;;4978123;28;19942;-94
2022/06/19 14:53:48;;;;;;;;;;;32.30;27.20;;;;;;4948609;29;19961;-96
2022/06/19 14:56:38;;;;;;;;;;;32.10;27.30;;;;;;4971771;28;19926;-94
2022/06/19 15:12:19;;;;;;;;;;;31.30;27.90;;;;;;5683959;23;19934;-91
2022/06/19 15:14:52;;;;;;;;;;;31.10;27.90;;;;;;4929311;29;20018;-92
2022/06/19 15:25:21;;;;;;;;;;;30.40;28.60;;;;;;4989440;28;19930;-91
2022/06/19 15:27:50;;;;;;;;;;;30.30;28.60;;;;;;4969010;28;19946;-90
2022/06/19 15:30:28;;;;;;;;;;;30.10;28.90;;;;;;4984699;28;19922;-91
2022/06/19 15:33:03;;;;;;;;;;;29.80;29.00;;;;;;4965173;28;19914;-91
2022/06/19 15:35:31;;;;;;;;;;;29.70;29.40;;;;;;4979524;28;20346;-93
2022/06/19 15:38:07;;;;;;;;;;;29.40;29.70;;;;;;4956936;28;19921;-92
2022/06/19 15:40:39;;;;;;;;;;;29.20;30.30;;;;;;4974742;28;19914;-91
2022/06/19 15:43:25;;;;;;;;;;;28.90;30.60;;;;;;4977770;28;19918;-91
2022/06/19 15:45:55;;;;;;;;;;;28.70;31.10;;;;;;4969411;28;19918;-92
2022/06/19 15:48:35;;;;;;;;;;;28.40;31.50;;;;;;4959714;28;19922;-91
2022/06/19 15:51:06;;;;;;;;;;;28.30;32.00;;;;;;4988151;28;19918;-93
2022/06/19 15:53:42;;;;;;;;;;;28.30;32.20;;;;;;4965380;28;19926;-92
2022/06/19 15:56:14;;;;;;;;;;;28.10;32.20;;;;;;4968205;28;20523;-93